Time;durP1;ratioP1;P1;durP2;ratioP2;P2;SDS_P1;SDS_P2;PMS_P1;PMS_P2;Temp;Humidity;BMP_temperature;BMP_pressure;BME280_temperature;BME280_humidity;BME280_pressure;Samples;Min_cycle;Max_cycle;Signal;HPM_P1;HPM_P2
2023/07/20 00:02:09;;;;;;;2.60;1.40;;;;;;;17.57;78.56;101560.94;4997206;28;97372;-26
2023/07/20 00:04:34;;;;;;;1.65;1.20;;;;;;;17.54;78.84;101553.84;4997144;28;97770;-27
2023/07/20 00:07:00;;;;;;;2.17;1.00;;;;;;;17.57;78.90;101560.94;4996920;28;96640;-28
2023/07/20 00:09:26;;;;;;;2.33;1.13;;;;;;;17.54;78.96;101558.41;4995824;28;96744;-27
2023/07/20 00:11:53;;;;;;;2.22;1.58;;;;;;;17.49;79.03;101553.31;4996700;28;99135;-27
2023/07/20 00:14:18;;;;;;;3.85;1.52;;;;;;;17.50;79.46;101557.81;4995879;28;101111;-26
2023/07/20 00:16:46;;;;;;;2.70;1.23;;;;;;;17.40;78.99;101549.44;4997384;28;96460;-28
2023/07/20 00:19:14;;;;;;;2.33;1.38;;;;;;;17.46;79.22;101559.03;4997206;28;96431;-26
2023/07/20 00:21:40;;;;;;;2.55;1.38;;;;;;;17.47;79.01;101562.63;4995095;28;98348;-26
2023/07/20 00:24:06;;;;;;;3.63;1.73;;;;;;;17.47;79.50;101566.28;4996992;28;97208;-27
2023/07/20 00:26:31;;;;;;;4.82;1.95;;;;;;;17.39;79.07;101555.91;4996927;28;96469;-27
2023/07/20 00:28:56;;;;;;;3.05;1.95;;;;;;;17.37;79.69;101573.44;4996883;28;96819;-27
2023/07/20 00:31:22;;;;;;;3.80;1.95;;;;;;;17.31;79.55;101566.59;4996731;28;98843;-27
2023/07/20 00:33:48;;;;;;;4.93;1.63;;;;;;;17.31;79.87;101563.00;4996757;28;97741;-26
2023/07/20 00:36:13;;;;;;;2.88;1.88;;;;;;;17.31;80.48;101571.22;4996537;28;96696;-26
2023/07/20 00:38:39;;;;;;;4.05;1.90;;;;;;;17.29;80.35;101563.09;4997322;28;96788;-27
2023/07/20 00:41:04;;;;;;;4.72;2.10;;;;;;;17.22;80.38;101566.44;4996701;28;97913;-27
2023/07/20 00:43:30;;;;;;;3.78;1.75;;;;;;;17.24;80.48;101572.69;4996636;28;97345;-26
2023/07/20 00:45:55;;;;;;;4.15;1.77;;;;;;;17.18;80.37;101563.06;4996152;28;96543;-27
2023/07/20 00:48:21;;;;;;;2.53;1.67;;;;;;;17.18;80.02;101563.97;4996398;28;96788;-26
2023/07/20 00:50:48;;;;;;;3.35;1.55;;;;;;;17.12;80.71;101567.16;4995036;28;100735;-27
2023/07/20 00:53:14;;;;;;;2.72;1.50;;;;;;;17.14;80.60;101576.13;4994977;28;100865;-26
2023/07/20 00:55:39;;;;;;;3.03;1.60;;;;;;;17.09;80.34;101561.94;4996737;28;96491;-27
2023/07/20 00:58:05;;;;;;;2.45;1.50;;;;;;;17.13;80.78;101574.38;4996615;28;96759;-26
2023/07/20 01:00:30;;;;;;;2.47;1.25;;;;;;;17.06;80.41;101564.03;4996266;28;97944;-27
2023/07/20 01:02:56;;;;;;;1.67;1.20;;;;;;;17.10;80.31;101574.63;4996559;28;98297;-27
2023/07/20 01:05:28;;;;;;;2.00;1.15;;;;;;;17.11;79.52;101573.66;4996219;28;96544;-26
2023/07/20 01:07:59;;;;;;;1.27;0.98;;;;;;;17.06;80.21;101567.63;4994969;28;96748;-26
2023/07/20 01:10:32;;;;;;;;;;;;;;;17.10;79.84;101581.97;4994646;28;98491;-27
2023/07/20 01:12:57;;;;;;;0.88;0.45;;;;;;;17.05;79.89;101574.09;4996011;28;99266;-26
2023/07/20 01:15:23;;;;;;;1.50;0.80;;;;;;;17.02;79.60;101571.63;4996438;28;96613;-30
2023/07/20 01:17:48;;;;;;;1.48;0.70;;;;;;;17.02;79.10;101567.97;4994695;28;96805;-27
2023/07/20 01:20:17;;;;;;;0.85;0.70;;;;;;;16.98;79.28;101570.09;4995901;28;99350;-26
2023/07/20 01:22:44;;;;;;;1.85;0.57;;;;;;;17.02;79.05;101578.94;4995714;28;97255;-27
2023/07/20 01:25:23;;;;;;;2.70;0.60;;;;;;;16.97;79.35;101565.59;4995929;28;96506;-26
2023/07/20 01:28:16;;;;;;;0.77;0.50;;;;;;;16.98;79.52;101576.44;4995047;28;96853;-27
2023/07/20 01:30:59;;;;;;;0.43;0.28;;;;;;;16.99;79.01;101577.31;4996001;28;96596;-28
2023/07/20 01:33:26;;;;;;;0.85;0.40;;;;;;;16.95;78.97;101575.81;4994388;28;101076;-27
2023/07/20 01:35:59;;;;;;;2.60;0.55;;;;;;;16.93;79.18;101575.06;4995305;28;96748;-27
2023/07/20 01:38:25;;;;;;;0.73;0.50;;;;;;;16.83;79.54;101566.69;4994118;28;96912;-26
2023/07/20 01:40:51;;;;;;;0.88;0.70;;;;;;;16.81;79.16;101570.53;4994251;28;101285;-27
2023/07/20 01:43:17;;;;;;;0.82;0.50;;;;;;;16.81;79.56;101582.34;4994129;28;100957;-27
2023/07/20 01:45:43;;;;;;;1.27;0.73;;;;;;;16.75;79.95;101593.72;4995717;28;96482;-26
2023/07/20 01:48:09;;;;;;;1.10;0.63;;;;;;;16.60;79.98;101581.19;4995836;28;96796;-26
2023/07/20 01:50:34;;;;;;;1.15;0.70;;;;;;;16.59;80.15;101587.63;4993620;28;101260;-27
2023/07/20 01:53:00;;;;;;;1.17;0.55;;;;;;;16.55;80.25;101598.81;4995225;28;98843;-27
2023/07/20 01:55:25;;;;;;;1.15;0.68;;;;;;;16.52;80.36;101598.19;4994326;28;96538;-27
2023/07/20 01:57:51;;;;;;;0.60;0.47;;;;;;;16.51;79.75;101594.56;4995855;28;96797;-27
2023/07/20 02:00:18;;;;;;;2.72;0.40;;;;;;;16.46;80.23;101596.75;4994943;28;97317;-26
2023/07/20 02:02:44;;;;;;;0.70;0.40;;;;;;;16.38;80.41;101591.00;4993649;28;101088;-27
2023/07/20 02:05:09;;;;;;;1.13;0.55;;;;;;;16.35;80.71;101596.69;4995646;28;96606;-27
2023/07/20 02:07:34;;;;;;;1.85;0.60;;;;;;;16.33;80.57;101596.81;4995465;28;96876;-28
2023/07/20 02:10:00;;;;;;;0.85;0.60;;;;;;;16.28;80.46;101595.38;4995110;28;97432;-27
2023/07/20 02:12:25;;;;;;;0.95;0.60;;;;;;;16.24;80.87;101592.03;4995141;28;97943;-26
2023/07/20 02:14:51;;;;;;;0.77;0.60;;;;;;;16.17;81.01;101587.13;4995664;28;96483;-26
2023/07/20 02:17:16;;;;;;;0.63;0.45;;;;;;;16.20;81.13;101600.56;4995873;28;96826;-27
2023/07/20 02:19:42;;;;;;;0.43;0.40;;;;;;;16.20;80.53;101606.03;4995000;28;98093;-26
2023/07/20 02:22:07;;;;;;;0.90;0.50;;;;;;;16.12;81.44;101610.19;4995058;28;97777;-26
2023/07/20 02:24:33;;;;;;;1.10;0.60;;;;;;;16.09;80.82;101601.38;4994540;28;96651;-28
2023/07/20 02:26:59;;;;;;;1.23;0.52;;;;;;;16.05;80.64;101597.97;4993855;28;96791;-27
2023/07/20 02:29:24;;;;;;;1.50;0.70;;;;;;;16.00;80.88;101597.44;4994984;28;97898;-26
2023/07/20 02:31:50;;;;;;;0.60;0.47;;;;;;;15.97;80.88;101594.94;4994959;28;97773;-27
2023/07/20 02:34:15;;;;;;;0.88;0.65;;;;;;;15.98;81.41;101598.53;4994885;28;96556;-27
2023/07/20 02:36:42;;;;;;;1.70;0.65;;;;;;;15.95;81.10;101598.75;4994923;28;97190;-27
2023/07/20 02:39:08;;;;;;;0.88;0.52;;;;;;;15.88;80.92;101596.44;4993222;28;100979;-26
2023/07/20 02:41:33;;;;;;;0.50;0.43;;;;;;;15.91;81.33;101603.56;4993628;28;98870;-27
2023/07/20 02:43:59;;;;;;;0.70;0.70;;;;;;;15.80;81.23;101597.97;4994643;28;96554;-27
2023/07/20 02:46:24;;;;;;;0.85;0.50;;;;;;;15.80;81.53;101611.63;4995006;28;96803;-27
2023/07/20 02:48:50;;;;;;;0.93;0.65;;;;;;;15.77;81.78;101617.31;4993515;28;97987;-26
2023/07/20 02:51:15;;;;;;;1.08;0.57;;;;;;;15.70;81.86;101603.22;4994152;28;97767;-27
2023/07/20 02:53:41;;;;;;;3.25;0.82;;;;;;;15.77;80.91;101620.06;4995055;28;96504;-27
2023/07/20 02:56:07;;;;;;;0.70;0.60;;;;;;;15.74;81.00;101620.28;4994880;28;96745;-27
2023/07/20 02:58:36;;;;;;;0.80;0.63;;;;;;;15.74;81.22;101623.03;4994507;28;97938;-27
2023/07/20 03:01:02;;;;;;;1.60;1.05;;;;;;;15.64;81.69;101620.91;4993079;28;100949;-27
2023/07/20 03:03:27;;;;;;;3.03;1.00;;;;;;;15.69;81.64;101632.38;4994805;28;96471;-26
2023/07/20 03:05:54;;;;;;;3.35;0.77;;;;;;;15.66;81.69;101621.66;4995015;28;96743;-27
2023/07/20 03:08:20;;;;;;;0.93;0.75;;;;;;;15.68;81.99;101632.47;4992853;28;99005;-27
2023/07/20 03:10:45;;;;;;;0.75;0.60;;;;;;;15.66;81.97;101638.06;4994445;28;97974;-27
2023/07/20 03:13:10;;;;;;;0.80;0.70;;;;;;;15.63;81.91;101630.06;4994354;28;96485;-27
2023/07/20 03:15:36;;;;;;;1.20;0.70;;;;;;;15.60;82.35;101623.94;4994786;28;96803;-26
2023/07/20 03:18:02;;;;;;;0.73;0.40;;;;;;;15.57;82.33;101626.91;4994326;28;97369;-27
2023/07/20 03:20:28;;;;;;;0.50;0.50;;;;;;;15.52;82.44;101627.22;4992851;28;100716;-26
2023/07/20 03:22:53;;;;;;;0.98;0.60;;;;;;;15.57;81.98;101633.25;4994244;28;96528;-27
2023/07/20 03:25:19;;;;;;;0.65;0.57;;;;;;;15.56;81.45;101641.53;4994287;28;96818;-27
2023/07/20 03:27:44;;;;;;;0.70;0.65;;;;;;;15.51;82.37;101636.38;4994163;28;97843;-28
2023/07/20 03:30:11;;;;;;;0.73;0.55;;;;;;;15.44;82.53;101629.59;4994217;28;110621;-27
2023/07/20 03:32:36;;;;;;;2.30;0.70;;;;;;;15.43;82.31;101620.53;4993036;28;96519;-27
2023/07/20 03:35:02;;;;;;;1.98;0.68;;;;;;;15.40;82.57;101619.91;4994013;28;96829;-27
2023/07/20 03:37:27;;;;;;;0.50;0.40;;;;;;;15.37;82.36;101615.50;4991960;28;101535;-27
2023/07/20 03:39:52;;;;;;;2.58;0.88;;;;;;;15.38;82.44;101622.72;4994116;28;98186;-26
2023/07/20 03:42:18;;;;;;;0.60;0.55;;;;;;;15.40;82.36;101619.91;4994366;28;96400;-27
2023/07/20 03:44:43;;;;;;;1.30;0.68;;;;;;;15.42;81.51;101617.91;4994249;28;96871;-27
2023/07/20 03:47:09;;;;;;;0.93;0.65;;;;;;;15.40;82.00;101626.22;4994076;28;97851;-26
2023/07/20 03:49:34;;;;;;;1.38;0.70;;;;;;;15.34;81.80;101625.78;4993294;28;97811;-26
2023/07/20 03:52:03;;;;;;;1.48;0.85;;;;;;;15.35;81.86;101633.88;4993978;28;96466;-26
2023/07/20 03:54:28;;;;;;;0.95;0.57;;;;;;;15.29;81.91;101634.28;4993712;28;96827;-26
2023/07/20 03:56:54;;;;;;;0.80;0.60;;;;;;;15.29;82.15;101637.88;4997326;28;97543;-27
2023/07/20 03:59:20;;;;;;;1.38;0.82;;;;;;;15.23;82.73;101638.31;4997571;28;97195;-27
2023/07/20 04:01:45;;;;;;;1.55;0.75;;;;;;;15.23;82.92;101643.78;4997077;28;96463;-27
2023/07/20 04:04:11;;;;;;;0.65;0.60;;;;;;;15.19;83.13;101644.94;4997230;28;96920;-26
2023/07/20 04:06:36;;;;;;;1.05;0.60;;;;;;;15.20;82.73;101640.38;4997154;28;97373;-26
2023/07/20 04:09:04;;;;;;;1.00;0.60;;;;;;;15.19;82.71;101644.94;4997094;28;97756;-27
2023/07/20 04:11:30;;;;;;;0.93;0.43;;;;;;;15.20;82.46;101643.09;4995925;28;96724;-26
2023/07/20 04:13:56;;;;;;;0.50;0.43;;;;;;;15.22;82.44;101646.59;4997384;28;96838;-27
2023/07/20 04:16:21;;;;;;;0.90;0.70;;;;;;;15.19;82.44;101641.34;4996755;28;99314;-26
2023/07/20 04:18:47;;;;;;;1.13;0.43;;;;;;;15.20;82.64;101643.09;4997168;28;97860;-27
2023/07/20 04:21:12;;;;;;;1.02;0.57;;;;;;;15.18;82.87;101632.31;4997003;28;96630;-26
2023/07/20 04:23:37;;;;;;;1.50;0.70;;;;;;;15.25;83.27;101644.53;4997204;28;96904;-26
2023/07/20 04:26:03;;;;;;;1.35;0.73;;;;;;;15.28;83.07;101649.78;4996025;28;99431;-27
2023/07/20 04:28:28;;;;;;;0.85;0.60;;;;;;;15.31;83.24;101643.25;4996757;28;98143;-26
2023/07/20 04:30:53;;;;;;;0.68;0.50;;;;;;;15.34;83.46;101650.34;4997142;28;96651;-27
2023/07/20 04:33:19;;;;;;;0.90;0.60;;;;;;;15.32;83.37;101647.69;4996807;28;96821;-27
2023/07/20 04:35:49;;;;;;;0.88;0.57;;;;;;;15.33;83.71;101643.16;4996164;28;97960;-26
2023/07/20 04:38:18;;;;;;;1.83;0.70;;;;;;;15.36;83.35;101657.44;4996621;28;97900;-26
2023/07/20 04:40:48;;;;;;;1.83;0.63;;;;;;;15.36;83.19;101646.53;4995498;28;96590;-26
2023/07/20 04:43:15;;;;;;;1.27;0.60;;;;;;;15.40;83.35;101649.94;4997054;28;96783;-26
2023/07/20 04:45:40;;;;;;;2.22;0.57;;;;;;;15.37;83.14;101642.78;4994951;28;100851;-27
2023/07/20 04:48:13;;;;;;;0.85;0.60;;;;;;;15.42;83.24;101650.66;4996103;28;99200;-27
2023/07/20 04:50:44;;;;;;;0.70;0.60;;;;;;;15.44;83.32;101654.19;4995802;28;96632;-27
2023/07/20 04:53:10;;;;;;;0.90;0.53;;;;;;;15.41;83.23;101644.34;4996589;28;96610;-28
2023/07/20 04:55:37;;;;;;;0.60;0.55;;;;;;;15.43;83.35;101645.13;4994888;28;101722;-26
2023/07/20 04:58:03;;;;;;;0.52;0.50;;;;;;;15.49;83.19;101652.91;4994960;28;100993;-27
2023/07/20 05:00:29;;;;;;;0.85;0.50;;;;;;;15.50;83.34;101651.91;4995158;28;96710;-27
2023/07/20 05:02:55;;;;;;;0.90;0.50;;;;;;;15.50;83.25;101654.63;4995073;28;96939;-26
2023/07/20 05:05:21;;;;;;;1.45;0.80;;;;;;;15.53;83.43;101655.41;4994741;28;100907;-27
2023/07/20 05:07:46;;;;;;;0.70;0.60;;;;;;;15.54;83.49;101649.84;4995792;28;99668;-27
2023/07/20 05:10:12;;;;;;;1.20;0.55;;;;;;;15.62;82.92;101654.78;4996371;28;96471;-27
2023/07/20 05:12:37;;;;;;;1.80;0.90;;;;;;;15.64;82.53;101659.13;4996588;28;96774;-26
2023/07/20 05:15:03;;;;;;;1.52;0.73;;;;;;;15.69;82.83;101661.53;4995584;28;98049;-27
2023/07/20 05:17:29;;;;;;;2.13;0.70;;;;;;;15.74;81.96;101656.66;4994549;28;101675;-26
2023/07/20 05:19:54;;;;;;;1.00;0.43;;;;;;;15.80;82.07;101652.63;4996459;28;96662;-27
2023/07/20 05:22:20;;;;;;;1.55;0.60;;;;;;;15.87;81.90;101646.63;4996060;28;96808;-27
2023/07/20 05:24:45;;;;;;;0.60;0.30;;;;;;;15.92;81.49;101643.53;4995881;28;97920;-27
2023/07/20 05:27:10;;;;;;;0.88;0.40;;;;;;;15.92;81.31;101640.81;4995565;28;99097;-26
2023/07/20 05:29:36;;;;;;;1.33;0.70;;;;;;;15.99;81.03;101655.78;4996575;28;96491;-27
2023/07/20 05:32:02;;;;;;;2.33;0.70;;;;;;;16.01;81.17;101644.75;4996462;28;97103;-27
2023/07/20 05:34:28;;;;;;;1.63;0.45;;;;;;;16.08;81.11;101654.25;4995894;28;98071;-27
2023/07/20 05:36:53;;;;;;;0.52;0.40;;;;;;;16.12;80.63;101655.78;4995926;28;97341;-27
2023/07/20 05:39:18;;;;;;;2.33;0.63;;;;;;;16.16;80.76;101651.88;4995763;28;96428;-26
2023/07/20 05:41:44;;;;;;;0.77;0.60;;;;;;;16.13;80.92;101647.47;4995724;28;97002;-28
2023/07/20 05:44:09;;;;;;;0.57;0.47;;;;;;;16.22;80.40;101656.00;4995720;28;98032;-28
2023/07/20 05:46:35;;;;;;;0.65;0.40;;;;;;;16.23;81.02;101646.81;4995397;28;97298;-26
2023/07/20 05:49:01;;;;;;;1.30;0.63;;;;;;;16.27;80.35;101656.53;4994949;28;100055;-27
2023/07/20 05:51:27;;;;;;;0.63;0.55;;;;;;;16.32;80.78;101655.19;4993113;28;96727;-30
2023/07/20 05:53:52;;;;;;;0.75;0.52;;;;;;;16.32;80.85;101655.19;4994064;28;97449;-27
2023/07/20 05:56:18;;;;;;;1.25;0.52;;;;;;;16.38;81.05;101662.09;4994349;28;99780;-26
2023/07/20 05:58:43;;;;;;;4.60;0.68;;;;;;;16.40;80.27;101659.25;4995359;28;96492;-30
2023/07/20 06:01:08;;;;;;;0.30;0.30;;;;;;;16.42;79.80;101651.81;4995600;28;96789;-27
2023/07/20 06:03:34;;;;;;;1.63;0.63;;;;;;;16.50;79.80;101666.66;4994782;28;99424;-26
2023/07/20 06:06:01;;;;;;;1.42;0.82;;;;;;;16.56;79.70;101654.41;4995233;28;97870;-27
2023/07/20 06:08:28;;;;;;;1.00;0.68;;;;;;;16.55;80.61;101661.72;4993995;28;96569;-27
2023/07/20 06:10:53;;;;;;;5.70;0.98;;;;;;;16.51;79.88;101648.41;4994043;28;96950;-26
2023/07/20 06:13:19;;;;;;;1.85;0.93;;;;;;;16.54;79.85;101656.34;4995224;28;97429;-27
2023/07/20 06:15:44;;;;;;;1.58;0.90;;;;;;;16.58;80.16;101667.97;4994763;28;99171;-27
2023/07/20 06:18:09;;;;;;;1.48;0.80;;;;;;;16.53;80.42;101668.31;4994399;28;96606;-27
2023/07/20 06:20:35;;;;;;;3.35;0.80;;;;;;;16.52;80.79;101667.44;4996003;28;96758;-27
2023/07/20 06:23:00;;;;;;;0.98;0.70;;;;;;;16.54;80.74;101676.41;4995149;28;97945;-27
2023/07/20 06:25:26;;;;;;;2.22;0.50;;;;;;;16.53;80.52;101660.09;4994977;28;97779;-27
2023/07/20 06:27:51;;;;;;;1.40;0.82;;;;;;;16.60;80.03;101685.16;4994564;28;96490;-28
2023/07/20 06:30:17;;;;;;;1.58;0.80;;;;;;;16.59;80.19;101680.63;4994967;28;96848;-27
2023/07/20 06:32:43;;;;;;;1.65;1.00;;;;;;;16.63;80.05;101693.13;4995008;28;97750;-27
2023/07/20 06:35:08;;;;;;;2.65;1.02;;;;;;;16.64;79.90;101690.28;4994773;28;97868;-27
2023/07/20 06:37:34;;;;;;;1.25;0.73;;;;;;;16.85;79.92;101674.16;4995144;28;96495;-27
2023/07/20 06:40:00;;;;;;;1.75;0.80;;;;;;;17.10;78.49;101678.66;4994024;28;96815;-27
2023/07/20 06:42:25;;;;;;;0.88;0.47;;;;;;;17.36;77.94;101690.34;4994636;28;99615;-28
2023/07/20 06:44:50;;;;;;;1.00;0.47;;;;;;;17.59;77.67;101685.84;4994965;28;97826;-27
2023/07/20 06:47:16;;;;;;;2.38;0.60;;;;;;;17.75;76.84;101670.91;4995070;28;96585;-27
2023/07/20 06:49:41;;;;;;;0.65;0.40;;;;;;;17.98;75.96;101677.38;4994555;28;96800;-27
2023/07/20 06:52:07;;;;;;;0.50;0.30;;;;;;;18.02;74.48;101670.66;4993966;28;99275;-27
2023/07/20 06:54:32;;;;;;;0.90;0.60;;;;;;;18.18;74.44;101670.28;4994365;28;99741;-27
2023/07/20 06:56:58;;;;;;;0.95;0.50;;;;;;;18.30;74.56;101672.03;4994962;28;96550;-27
2023/07/20 06:59:24;;;;;;;0.93;0.38;;;;;;;18.48;73.40;101672.41;4994627;28;96879;-28
2023/07/20 07:01:49;;;;;;;1.73;0.40;;;;;;;18.61;72.71;101680.50;4994173;28;99766;-27
2023/07/20 07:04:15;;;;;;;0.82;0.52;;;;;;;18.73;72.61;101673.13;4992938;28;100760;-28
2023/07/20 07:06:40;;;;;;;1.33;0.55;;;;;;;18.86;71.63;101673.88;4994822;28;96653;-27
2023/07/20 07:09:06;;;;;;;0.50;0.40;;;;;;;19.01;71.29;101674.47;4995309;28;96739;-28
2023/07/20 07:11:31;;;;;;;1.80;0.95;;;;;;;19.13;69.34;101669.81;4994141;28;99212;-27
2023/07/20 07:13:56;;;;;;;0.32;0.28;;;;;;;19.23;69.82;101673.50;4994176;28;97783;-27
2023/07/20 07:16:22;;;;;;;0.90;0.50;;;;;;;19.33;68.98;101676.34;4994273;28;96498;-28
2023/07/20 07:18:50;;;;;;;1.15;0.43;;;;;;;19.40;68.66;101681.22;4994749;28;96856;-27
2023/07/20 07:21:15;;;;;;;1.20;0.70;;;;;;;19.55;68.30;101678.13;4992809;28;101033;-29
2023/07/20 07:23:40;;;;;;;0.88;0.50;;;;;;;19.59;68.24;101682.34;4994100;28;98752;-27
2023/07/20 07:26:06;;;;;;;2.70;0.40;;;;;;;19.83;67.34;101680.25;4994444;28;96559;-28
2023/07/20 07:28:34;;;;;;;0.45;0.45;;;;;;;19.94;67.06;101687.56;4994351;28;96908;-29
2023/07/20 07:30:59;;;;;;;0.40;0.40;;;;;;;20.07;66.41;101681.84;4996830;28;99387;-27
2023/07/20 07:33:25;;;;;;;1.25;0.60;;;;;;;20.14;65.62;101681.19;4997751;28;103110;-27
2023/07/20 07:35:53;;;;;;;1.00;0.45;;;;;;;20.24;65.06;101685.88;4997739;28;96696;-27
2023/07/20 07:38:19;;;;;;;0.77;0.43;;;;;;;20.26;66.29;101690.22;4996339;28;96868;-27
2023/07/20 07:40:45;;;;;;;1.35;0.63;;;;;;;20.31;65.47;101690.66;4995522;28;101397;-28
2023/07/20 07:43:11;;;;;;;0.65;0.50;;;;;;;20.27;65.31;101682.81;4997387;28;97150;-27
2023/07/20 07:45:37;;;;;;;1.98;0.55;;;;;;;20.34;64.77;101675.75;4996292;28;96651;-27
2023/07/20 07:48:03;;;;;;;1.10;0.50;;;;;;;20.42;65.01;101681.44;4997820;28;96624;-27
2023/07/20 07:50:29;;;;;;;0.68;0.30;;;;;;;20.41;65.13;101685.22;4995448;28;100853;-27
2023/07/20 07:52:55;;;;;;;0.50;0.50;;;;;;;20.46;63.53;101685.66;4997448;28;97837;-28
2023/07/20 07:55:20;;;;;;;0.68;0.50;;;;;;;20.55;63.80;101687.63;4997803;28;96649;-27
2023/07/20 07:57:47;;;;;;;0.30;0.30;;;;;;;20.68;64.24;101692.88;4997656;28;96886;-27
2023/07/20 08:00:14;;;;;;;0.95;0.50;;;;;;;20.73;62.56;101685.06;4996994;28;99448;-27
2023/07/20 08:02:43;;;;;;;0.30;0.30;;;;;;;20.91;62.10;101676.13;4995661;28;100801;-27
2023/07/20 08:05:09;;;;;;;0.50;0.30;;;;;;;21.07;61.34;101684.72;4996896;28;96592;-27
2023/07/20 08:07:35;;;;;;;1.17;0.45;;;;;;;20.82;61.50;101679.72;4995959;28;96912;-27
2023/07/20 08:10:01;;;;;;;1.27;0.50;;;;;;;20.67;62.62;101684.78;4995581;28;101040;-27
2023/07/20 08:12:27;;;;;;;0.57;0.45;;;;;;;21.00;62.40;101691.81;4997074;28;97983;-27
2023/07/20 08:14:52;;;;;;;1.83;0.57;;;;;;;21.21;61.95;101684.31;4997133;28;96495;-27
2023/07/20 08:17:17;;;;;;;0.43;0.32;;;;;;;21.45;60.85;101685.78;4997393;28;96792;-27
2023/07/20 08:19:44;;;;;;;0.68;0.45;;;;;;;21.50;61.53;101683.47;4996941;28;97952;-27
2023/07/20 08:22:09;;;;;;;1.98;1.02;;;;;;;21.70;60.38;101680.72;4995766;28;98795;-27
2023/07/20 08:24:35;;;;;;;1.85;1.20;;;;;;;21.88;60.22;101689.97;4996982;28;96631;-27
2023/07/20 08:27:00;;;;;;;0.80;0.57;;;;;;;21.94;59.40;101683.00;4995606;28;96813;-27
2023/07/20 08:29:26;;;;;;;0.80;0.45;;;;;;;21.77;59.67;101682.72;4996504;28;97981;-28
2023/07/20 08:31:51;;;;;;;1.23;0.47;;;;;;;21.41;60.70;101687.09;4996804;28;97817;-26
2023/07/20 08:34:16;;;;;;;0.25;0.25;;;;;;;21.17;60.54;101685.59;4997269;28;96630;-28
2023/07/20 08:36:42;;;;;;;0.85;0.50;;;;;;;20.89;60.23;101679.03;4997096;28;96879;-27
2023/07/20 08:39:08;;;;;;;0.40;0.35;;;;;;;20.88;61.98;101688.31;4996707;28;97932;-28
2023/07/20 08:41:35;;;;;;;1.23;0.40;;;;;;;20.73;61.42;101686.94;4995623;28;97257;-27
2023/07/20 08:44:01;;;;;;;2.95;0.40;;;;;;;20.46;61.30;101677.41;4995423;28;96625;-28
2023/07/20 08:46:28;;;;;;;0.98;0.40;;;;;;;20.29;61.99;101684.44;4997227;28;96830;-28
2023/07/20 08:48:54;;;;;;;0.93;0.40;;;;;;;20.17;62.92;101687.41;4994623;28;101203;-27
2023/07/20 08:51:21;;;;;;;0.45;0.40;;;;;;;20.00;63.01;101687.03;4994677;28;100793;-27
2023/07/20 08:53:47;;;;;;;1.13;0.45;;;;;;;19.84;62.75;101686.63;4994792;28;96503;-28
2023/07/20 08:56:15;;;;;;;0.75;0.35;;;;;;;19.72;63.27;101689.44;4995284;28;96864;-27
2023/07/20 08:58:43;;;;;;;0.63;0.28;;;;;;;19.50;63.68;101679.41;4994819;28;101548;-28
2023/07/20 09:01:11;;;;;;;0.40;0.40;;;;;;;19.43;64.66;101694.69;4994848;28;100969;-27
2023/07/20 09:03:39;;;;;;;0.70;0.50;;;;;;;19.33;64.26;101693.72;4995234;28;96663;-27
2023/07/20 09:06:05;;;;;;;2.92;0.43;;;;;;;19.29;64.04;101693.09;4995024;28;96960;-28
2023/07/20 09:08:31;;;;;;;0.17;0.17;;;;;;;19.21;65.12;101695.63;4994709;28;101048;-27
2023/07/20 09:10:56;;;;;;;0.38;0.30;;;;;;;19.18;65.03;101692.25;4996661;28;97311;-27
2023/07/20 09:13:22;;;;;;;1.40;0.40;;;;;;;19.10;65.35;101688.28;4996197;28;96487;-27
2023/07/20 09:15:53;;;;;;;2.15;0.57;;;;;;;19.03;65.91;101686.19;4996494;28;96730;-27
2023/07/20 09:18:27;;;;;;;0.50;0.30;;;;;;;18.97;66.09;101681.22;4994153;28;101250;-27
2023/07/20 09:20:53;;;;;;;0.38;0.35;;;;;;;19.00;66.28;101692.81;4994519;28;99025;-27
2023/07/20 09:23:19;;;;;;;0.47;0.30;;;;;;;18.95;66.34;101684.09;4994747;28;96651;-27
2023/07/20 09:25:50;;;;;;;0.88;0.50;;;;;;;18.96;66.41;101687.72;4996212;28;96766;-27
2023/07/20 09:28:15;;;;;;;0.98;0.45;;;;;;;18.89;66.39;101687.34;4994613;28;101035;-28
2023/07/20 09:30:41;;;;;;;0.88;0.43;;;;;;;18.90;66.66;101691.81;4995875;28;97903;-29
2023/07/20 09:33:18;;;;;;;1.33;0.73;;;;;;;18.86;66.52;101685.72;4996322;28;96666;-30
2023/07/20 09:35:43;;;;;;;1.85;0.55;;;;;;;18.91;66.66;101687.22;4994710;28;96868;-27
2023/07/20 09:38:09;;;;;;;0.50;0.40;;;;;;;19.01;66.17;101689.06;4995783;28;98744;-27
2023/07/20 09:40:38;;;;;;;1.40;0.43;;;;;;;19.16;66.07;101688.78;4995669;28;97864;-27
2023/07/20 09:43:08;;;;;;;1.00;0.55;;;;;;;19.27;64.95;101686.84;4994081;28;96699;-26
2023/07/20 09:45:35;;;;;;;2.40;0.50;;;;;;;19.65;64.75;101692.81;4996089;28;96562;-29
2023/07/20 09:48:06;;;;;;;0.45;0.40;;;;;;;19.93;63.54;101688.56;4994035;28;101098;-27
2023/07/20 09:50:32;;;;;;;1.70;0.52;;;;;;;20.06;62.92;101689.22;4993578;28;101546;-27
2023/07/20 09:52:58;;;;;;;1.70;0.73;;;;;;;20.51;61.98;101688.00;4995660;28;96665;-27
2023/07/20 09:55:26;;;;;;;1.55;0.60;;;;;;;20.78;61.14;101691.03;4995829;28;96811;-26
2023/07/20 09:57:53;;;;;;;2.03;0.90;;;;;;;21.14;60.71;101682.25;4993931;28;101175;-27
2023/07/20 10:00:19;;;;;;;0.75;0.60;;;;;;;21.34;60.03;101684.03;4995814;28;97791;-28
2023/07/20 10:02:45;;;;;;;2.17;0.93;;;;;;;21.55;58.54;101674.78;4995685;28;96665;-27
2023/07/20 10:05:16;;;;;;;1.58;0.60;;;;;;;21.84;58.81;101681.13;4994170;28;96815;-27
2023/07/20 10:07:50;;;;;;;1.05;0.70;;;;;;;21.94;56.40;101683.84;4993490;28;98803;-28
2023/07/20 10:10:17;;;;;;;1.33;0.60;;;;;;;21.93;58.22;101678.47;4993868;28;101209;-28
2023/07/20 10:12:45;;;;;;;1.23;0.50;;;;;;;22.18;56.36;101682.50;4994142;28;96588;-27
2023/07/20 10:15:24;;;;;;;1.17;0.60;;;;;;;22.02;55.52;101681.25;4993988;28;96845;-28
2023/07/20 10:18:01;;;;;;;2.22;0.60;;;;;;;21.87;56.79;101679.09;4995354;28;97521;-27
2023/07/20 10:20:27;;;;;;;1.75;0.55;;;;;;;21.63;57.41;101686.78;4993733;28;100992;-27
2023/07/20 10:22:54;;;;;;;2.53;0.50;;;;;;;21.67;58.27;101672.75;4995474;28;96662;-27
2023/07/20 10:25:22;;;;;;;0.63;0.47;;;;;;;21.70;57.25;101672.44;4994167;28;96856;-27
2023/07/20 10:27:48;;;;;;;1.50;0.70;;;;;;;21.95;56.49;101666.31;4993591;28;101163;-27
2023/07/20 10:30:14;;;;;;;1.45;0.60;;;;;;;21.86;55.86;101661.66;4993513;28;100417;-27
2023/07/20 10:32:41;;;;;;;1.13;0.70;;;;;;;21.93;55.54;101661.91;4994707;28;96607;-27
2023/07/20 10:35:17;;;;;;;1.92;0.82;;;;;;;22.30;55.78;101669.41;4993296;28;96900;-27
2023/07/20 10:37:50;;;;;;;1.50;0.80;;;;;;;22.67;55.54;101677.69;4993410;28;101207;-27
2023/07/20 10:40:38;;;;;;;0.60;0.52;;;;;;;22.68;54.38;101668.38;4993113;28;100803;-28
2023/07/20 10:43:08;;;;;;;0.80;0.60;;;;;;;22.81;55.28;101663.34;4995001;28;96676;-27
2023/07/20 10:45:34;;;;;;;1.05;0.65;;;;;;;22.96;54.96;101666.47;4993468;28;96975;-27
2023/07/20 10:48:04;;;;;;;1.15;0.73;;;;;;;22.80;54.92;101658.84;4993304;28;101066;-27
2023/07/20 10:50:30;;;;;;;1.17;0.65;;;;;;;22.65;54.82;101657.63;4992842;28;100781;-26
2023/07/20 10:53:12;;;;;;;1.10;0.57;;;;;;;22.43;55.63;101645.09;4994745;28;96516;-27
2023/07/20 10:55:37;;;;;;;0.40;0.40;;;;;;;22.22;56.38;101651.72;4995228;28;96702;-27
2023/07/20 10:58:08;;;;;;;0.90;0.75;;;;;;;22.18;56.31;101655.75;4994121;28;98116;-28
2023/07/20 11:00:33;;;;;;;0.98;0.60;;;;;;;22.05;55.99;101653.34;4993142;28;101199;-27
2023/07/20 11:03:02;;;;;;;1.20;0.60;;;;;;;21.81;55.84;101647.47;4994688;28;96525;-28
2023/07/20 11:05:38;;;;;;;3.70;0.60;;;;;;;21.71;55.85;101660.38;4992583;28;96849;-27
2023/07/20 11:08:05;;;;;;;1.35;0.57;;;;;;;21.60;57.15;101658.66;4994657;28;97984;-27
2023/07/20 11:10:31;;;;;;;1.30;0.80;;;;;;;21.61;57.99;101643.84;4993023;28;101030;-27
2023/07/20 11:13:22;;;;;;;1.88;0.82;;;;;;;21.44;55.93;101652.88;4994457;28;96626;-27
2023/07/20 11:16:03;;;;;;;1.13;0.65;;;;;;;21.42;56.63;101644.72;4993576;28;96891;-27
2023/07/20 11:18:29;;;;;;;0.52;0.38;;;;;;;21.58;57.32;101646.91;4992979;28;101474;-27
2023/07/20 11:20:54;;;;;;;2.88;0.52;;;;;;;21.82;57.03;101640.91;4994003;28;99283;-27
2023/07/20 11:23:20;;;;;;;2.08;0.90;;;;;;;21.85;56.00;101643.38;4993856;28;96635;-27